Time;durP1;ratioP1;P1;durP2;ratioP2;P2;SDS_P1;SDS_P2;PMS_P1;PMS_P2;Temp;Humidity;BMP_temperature;BMP_pressure;BME280_temperature;BME280_humidity;BME280_pressure;Samples;Min_cycle;Max_cycle;Signal;HPM_P1;HPM_P2
2022/08/22 00:00:20;;;;;;;3.97;2.47;;;;;;;23.17;47.59;101240.09;5074859;27;97537;-69
2022/08/22 00:02:57;;;;;;;6.78;2.80;;;;;;;22.91;47.66;101244.88;5074447;27;97117;-69
2022/08/22 00:05:32;;;;;;;3.85;2.30;;;;;;;23.12;47.46;101242.31;5069981;27;98877;-69
2022/08/22 00:08:07;;;;;;;5.60;2.35;;;;;;;23.27;47.23;101251.03;5063739;27;102110;-69
2022/08/22 00:10:47;;;;;;;5.93;2.70;;;;;;;23.12;48.12;101246.84;5064976;27;97272;-69
2022/08/22 00:13:19;;;;;;;6.18;2.90;;;;;;;23.23;48.29;101241.47;5073788;27;96932;-69
2022/08/22 00:15:53;;;;;;;5.15;2.58;;;;;;;23.00;48.69;101236.09;5064537;27;100072;-69
2022/08/22 00:18:27;;;;;;;4.25;2.67;;;;;;;23.00;48.86;101229.84;5069410;27;98846;-69
2022/08/22 00:21:04;;;;;;;6.18;2.70;;;;;;;22.85;49.68;101234.59;5066812;27;98949;-68
2022/08/22 00:23:38;;;;;;;4.10;2.70;;;;;;;22.67;50.43;101231.50;5073400;27;96700;-69
2022/08/22 00:26:15;;;;;;;5.07;2.88;;;;;;;22.60;50.70;101232.94;5070885;27;98636;-68
2022/08/22 00:28:48;;;;;;;5.82;2.80;;;;;;;22.42;51.11;101237.06;5068843;27;99588;-68
2022/08/22 00:31:25;;;;;;;5.63;2.88;;;;;;;22.55;50.00;101237.84;5068668;27;98354;-68
2022/08/22 00:33:59;;;;;;;4.88;2.60;;;;;;;22.53;48.92;101238.91;5067245;27;96890;-68
2022/08/22 00:36:31;;;;;;;7.30;2.50;;;;;;;22.35;50.34;101230.44;5067474;27;99345;-69
2022/08/22 00:39:07;;;;;;;4.32;2.38;;;;;;;22.63;49.98;101238.09;5066129;27;98752;-68
2022/08/22 00:41:48;;;;;;;6.15;3.15;;;;;;;22.54;50.30;101246.88;5067981;27;96772;-68
2022/08/22 00:44:35;;;;;;;10.02;2.83;;;;;;;22.40;50.55;101244.41;5069147;27;97742;-68
2022/08/22 00:47:20;;;;;;;7.90;3.08;;;;;;;22.62;50.55;101249.00;5073145;27;98895;-69
2022/08/22 00:50:29;;;;;;;4.68;2.53;;;;;;;22.33;51.50;101248.53;5064797;27;98787;-69
2022/08/22 00:53:15;;;;;;;4.80;2.55;;;;;;;22.28;51.19;101248.03;4989263;27;97127;-69
2022/08/22 00:55:58;;;;;;;4.63;2.90;;;;;;;22.33;50.63;101237.78;5067966;27;96780;-69
2022/08/22 00:58:59;;;;;;;4.13;2.70;;;;;;;22.61;49.75;101253.53;5068020;27;98289;-69
2022/08/22 01:01:30;;;;;;;4.47;2.65;;;;;;;22.80;49.34;101247.59;5060829;27;100250;-69
2022/08/22 01:04:28;;;;;;;4.88;2.95;;;;;;;22.57;50.08;101246.66;5069465;27;97266;-69
2022/08/22 01:07:11;;;;;;;8.48;3.20;;;;;;;22.38;50.62;101242.81;5064971;27;97168;-69
2022/08/22 01:09:52;;;;;;;3.75;2.53;;;;;;;22.39;50.59;101242.69;5062390;27;97639;-69
2022/08/22 01:12:33;;;;;;;6.20;3.28;;;;;;;22.36;50.52;101239.38;5066368;27;98845;-68
2022/08/22 01:15:03;;;;;;;6.28;3.15;;;;;;;22.24;51.04;101249.25;5060090;27;98140;-68
2022/08/22 01:18:08;;;;;;;5.25;2.92;;;;;;;22.14;51.73;101256.31;5071812;27;97042;-69
2022/08/22 01:21:11;;;;;;;7.28;2.80;;;;;;;22.18;51.81;101263.19;5068813;27;101072;-68
2022/08/22 01:24:17;;;;;;;6.07;2.75;;;;;;;22.00;52.93;101262.72;5065599;27;98780;-69
2022/08/22 01:27:20;;;;;;;7.85;2.90;;;;;;;22.00;53.32;101262.72;5065384;27;96860;-68
2022/08/22 01:30:07;;;;;;;5.00;2.85;;;;;;;21.90;53.87;101260.81;5070211;27;96751;-69
2022/08/22 01:33:14;;;;;;;7.93;2.75;;;;;;;22.04;53.36;101266.91;5070730;27;100500;-68
2022/08/22 01:36:00;;;;;;;4.90;2.75;;;;;;;22.13;53.09;101268.03;5067467;27;98838;-68
2022/08/22 01:38:56;;;;;;;7.70;2.43;;;;;;;21.91;53.36;101276.00;5056863;27;96826;-68
2022/08/22 01:41:41;;;;;;;6.22;2.80;;;;;;;21.85;53.33;101275.47;5070344;27;97105;-68
2022/08/22 01:44:20;;;;;;;3.42;2.40;;;;;;;22.01;52.89;101274.34;5066711;27;101011;-68
2022/08/22 01:46:58;;;;;;;5.70;2.25;;;;;;;21.97;52.51;101276.41;5068707;27;98808;-68
2022/08/22 01:49:29;;;;;;;6.28;2.92;;;;;;;22.10;52.75;101276.34;5066520;27;97339;-68
2022/08/22 01:52:04;;;;;;;4.90;2.67;;;;;;;22.00;53.19;101273.47;5065890;27;96824;-68
2022/08/22 01:54:43;;;;;;;5.07;2.83;;;;;;;21.91;53.28;101281.38;5063231;27;99192;-68
2022/08/22 01:57:10;;;;;;;3.95;2.38;;;;;;;21.96;53.16;101276.53;5062177;27;98587;-67
2022/08/22 01:59:39;;;;;;;6.53;2.28;;;;;;;21.97;52.26;101272.88;5070722;27;97740;-68
2022/08/22 02:02:29;;;;;;;7.10;3.00;;;;;;;21.93;52.65;101269.50;5070676;27;96954;-68
2022/08/22 02:05:06;;;;;;;4.32;2.42;;;;;;;21.91;52.97;101273.28;5067535;27;97873;-68
2022/08/22 02:07:45;;;;;;;8.10;2.63;;;;;;;21.78;53.98;101267.97;5066046;27;101261;-69
2022/08/22 02:10:16;;;;;;;6.53;2.90;;;;;;;21.86;54.26;101273.63;5071139;27;97425;-67
2022/08/22 02:12:50;;;;;;;5.93;2.70;;;;;;;21.82;54.27;101270.31;5066024;27;97500;-68
2022/08/22 02:15:22;;;;;;;6.93;2.63;;;;;;;21.72;54.49;101263.03;5067453;27;98884;-68
2022/08/22 02:18:11;;;;;;;4.65;2.60;;;;;;;21.78;54.12;101263.44;5071005;27;97788;-68
2022/08/22 02:20:53;;;;;;;4.80;2.60;;;;;;;21.67;55.14;101257.97;5064814;27;96838;-68
2022/08/22 02:23:29;;;;;;;7.65;2.50;;;;;;;21.80;54.69;101272.25;5066066;27;96769;-67
2022/08/22 02:26:04;;;;;;;4.70;2.70;;;;;;;21.70;54.99;101264.97;5068472;27;99563;-68
2022/08/22 02:28:41;;;;;;;4.20;2.50;;;;;;;21.58;55.58;101268.56;5072242;27;99108;-68
2022/08/22 02:31:13;;;;;;;7.38;2.83;;;;;;;21.63;55.26;101272.63;5067098;27;97058;-68
2022/08/22 02:33:56;;;;;;;4.97;3.30;;;;;;;21.65;54.98;101276.09;5072656;27;96874;-68
2022/08/22 02:36:28;;;;;;;6.10;2.70;;;;;;;21.82;54.07;101273.00;5069856;27;99027;-68
2022/08/22 02:39:06;;;;;;;6.15;2.55;;;;;;;21.72;54.14;101273.81;5071706;27;100581;-67
2022/08/22 02:41:44;;;;;;;9.10;2.70;;;;;;;21.45;55.10;101269.47;5070981;27;97045;-68
2022/08/22 02:44:19;;;;;;;6.35;2.80;;;;;;;21.60;55.13;101274.69;5073810;27;97567;-68
2022/08/22 02:46:53;;;;;;;5.97;2.38;;;;;;;21.66;54.68;101274.25;5067708;27;98953;-68
2022/08/22 02:49:27;;;;;;;8.00;2.60;;;;;;;21.57;54.91;101264.16;5069848;27;98285;-68
2022/08/22 02:52:04;;;;;;;6.97;3.00;;;;;;;21.62;54.85;101262.84;5070140;27;97767;-68
2022/08/22 02:54:39;;;;;;;5.68;2.70;;;;;;;21.50;55.21;101265.56;5070301;27;97278;-68
2022/08/22 02:57:09;;;;;;;9.57;2.53;;;;;;;21.60;55.18;101263.91;5069856;27;98503;-68
2022/08/22 02:59:57;;;;;;;4.47;2.25;;;;;;;21.76;54.79;101260.00;5068381;27;99550;-69
2022/08/22 03:02:32;;;;;;;7.40;2.85;;;;;;;21.66;54.83;101258.13;5072810;27;96700;-69
2022/08/22 03:05:14;;;;;;;8.48;2.67;;;;;;;21.61;55.18;101269.19;5074569;27;96779;-67
2022/08/22 03:07:46;;;;;;;14.95;3.10;;;;;;;21.72;54.79;101260.34;5062667;27;99268;-68
2022/08/22 03:10:20;;;;;;;5.07;2.53;;;;;;;21.53;55.53;101266.19;5072934;27;98971;-68
2022/08/22 03:12:54;;;;;;;4.68;2.50;;;;;;;21.68;55.19;101270.47;5068745;27;96844;-68
2022/08/22 03:15:27;;;;;;;5.72;2.90;;;;;;;21.67;55.31;101267.88;5067782;27;96792;-69
2022/08/22 03:18:02;;;;;;;9.13;3.35;;;;;;;21.62;55.63;101265.53;5076443;27;98892;-68
2022/08/22 03:20:46;;;;;;;8.00;3.13;;;;;;;21.37;56.36;101269.16;5072081;27;99725;-69
2022/08/22 03:23:23;;;;;;;3.55;2.50;;;;;;;21.68;55.48;101259.72;5072799;27;96656;-68
2022/08/22 03:25:59;;;;;;;5.50;2.72;;;;;;;21.61;56.19;101257.56;5066069;27;97698;-68
2022/08/22 03:28:31;;;;;;;5.97;2.95;;;;;;;21.67;56.09;101266.06;5068763;27;102227;-69
2022/08/22 03:31:00;;;;;;;6.72;3.00;;;;;;;21.61;56.47;101262.94;5071354;27;98920;-68
2022/08/22 03:33:29;;;;;;;6.70;3.10;;;;;;;21.69;56.31;101256.06;5072740;27;96930;-68
2022/08/22 03:36:04;;;;;;;7.13;3.47;;;;;;;21.73;56.65;101248.59;5073952;27;97213;-68
2022/08/22 03:38:47;;;;;;;4.30;2.80;;;;;;;21.76;56.84;101253.75;5064410;27;98949;-68
2022/08/22 03:41:43;;;;;;;6.85;3.13;;;;;;;21.71;56.82;101256.81;5069634;27;99396;-68
2022/08/22 03:44:44;;;;;;;9.93;3.78;;;;;;;21.70;57.32;101257.78;5072979;27;97238;-68
2022/08/22 03:47:37;;;;;;;4.20;2.70;;;;;;;21.69;56.96;101252.50;5074863;27;97122;-68
2022/08/22 03:50:22;;;;;;;5.43;3.10;;;;;;;21.64;56.39;101260.91;5070333;27;98991;-68
2022/08/22 03:53:14;;;;;;;7.13;3.08;;;;;;;21.69;56.76;101257.88;5065446;27;98161;-68
2022/08/22 03:56:20;;;;;;;5.53;3.38;;;;;;;21.69;56.88;101256.06;5064260;27;97505;-68
2022/08/22 03:59:05;;;;;;;5.97;3.75;;;;;;;21.60;57.29;101266.59;5073812;27;96857;-67
2022/08/22 04:02:20;;;;;;;6.35;3.55;;;;;;;21.74;57.00;101259.25;5057906;27;99328;-67
2022/08/22 04:05:12;;;;;;;7.53;3.40;;;;;;;21.60;57.45;101270.16;4986161;28;99049;-67
2022/08/22 04:08:00;;;;;;;9.30;3.38;;;;;;;21.77;56.88;101272.50;5072719;27;96810;-68
2022/08/22 04:10:51;;;;;;;8.35;3.60;;;;;;;21.79;56.55;101270.53;5064209;27;96732;-68
2022/08/22 04:13:43;;;;;;;8.13;3.47;;;;;;;21.58;56.96;101269.44;5068523;27;99180;-68
2022/08/22 04:16:46;;;;;;;10.63;3.28;;;;;;;21.64;57.36;101270.81;5068753;27;98903;-68
2022/08/22 04:19:52;;;;;;;5.93;3.55;;;;;;;21.55;57.63;101276.84;5033805;27;97002;-68
2022/08/22 04:22:51;;;;;;;5.88;3.50;;;;;;;21.59;57.85;101281.91;5061359;27;96722;-68
2022/08/22 04:25:24;;;;;;;8.13;3.92;;;;;;;21.67;57.61;101282.19;5054949;27;99339;-69
2022/08/22 04:27:57;;;;;;;5.63;3.72;;;;;;;21.76;57.33;101278.84;5068247;27;98881;-69
2022/08/22 04:30:30;;;;;;;7.93;4.82;;;;;;;21.80;57.49;101292.91;5065805;27;97042;-68
2022/08/22 04:33:03;;;;;;;6.78;3.67;;;;;;;21.82;57.51;101286.44;5072124;27;96969;-68
2022/08/22 04:35:33;;;;;;;8.18;4.03;;;;;;;21.67;58.19;101295.63;5069872;27;99590;-68
2022/08/22 04:38:05;;;;;;;8.65;3.90;;;;;;;21.84;57.79;101286.34;5069608;27;97625;-68
2022/08/22 04:40:41;;;;;;;6.47;3.47;;;;;;;22.07;57.22;101288.19;5064705;27;96811;-67
2022/08/22 04:43:17;;;;;;;8.82;4.20;;;;;;;21.88;57.68;101291.38;5072798;27;96780;-68
2022/08/22 04:45:52;;;;;;;7.95;4.35;;;;;;;22.08;57.43;101297.13;5070283;27;97659;-68
2022/08/22 04:48:27;;;;;;;10.00;4.15;;;;;;;22.23;56.88;101304.94;5068541;27;98901;-67
2022/08/22 04:51:01;;;;;;;12.73;5.13;;;;;;;22.35;56.53;101304.97;5068669;27;97092;-67
2022/08/22 04:53:52;;;;;;;15.05;7.80;;;;;;;22.33;56.46;101310.47;5066471;27;97296;-67
2022/08/22 04:56:28;;;;;;;12.13;7.68;;;;;;;22.23;56.60;101301.38;5065686;27;97997;-68
2022/08/22 04:58:58;;;;;;;12.20;5.72;;;;;;;22.35;56.61;101316.59;5069439;27;99098;-68
2022/08/22 05:01:36;;;;;;;7.53;4.43;;;;;;;22.37;56.47;101313.78;5068424;27;96856;-68
2022/08/22 05:04:08;;;;;;;8.20;4.32;;;;;;;22.42;56.59;101308.91;5066593;27;97155;-68
2022/08/22 05:06:43;;;;;;;9.18;4.75;;;;;;;22.41;56.87;101313.44;5068990;27;99513;-68
2022/08/22 05:09:14;;;;;;;5.90;3.53;;;;;;;22.27;57.47;101319.00;5070275;27;100445;-68
2022/08/22 05:11:45;;;;;;;11.32;4.65;;;;;;;22.45;56.67;101322.16;5069684;27;97031;-68
2022/08/22 05:14:17;;;;;;;12.63;5.22;;;;;;;22.27;57.48;101327.06;5066017;27;97064;-68
2022/08/22 05:16:49;;;;;;;13.73;4.80;;;;;;;22.34;57.29;101325.66;5065008;27;99235;-68
2022/08/22 05:19:20;;;;;;;9.40;4.72;;;;;;;22.43;57.06;101326.78;5064500;27;100977;-68
2022/08/22 05:21:51;;;;;;;12.95;4.80;;;;;;;22.74;56.10;101325.31;5068095;27;96703;-68
2022/08/22 05:24:24;;;;;;;13.05;5.53;;;;;;;22.74;55.80;101325.31;5063871;27;97664;-68
2022/08/22 05:26:54;;;;;;;16.17;7.03;;;;;;;22.72;55.76;101329.94;5071963;27;98929;-68
2022/08/22 05:29:27;;;;;;;11.80;4.50;;;;;;;22.82;55.93;101323.78;5064936;27;98821;-68
2022/08/22 05:31:59;;;;;;;13.52;4.45;;;;;;;22.72;56.32;101330.78;5071346;27;97093;-68
2022/08/22 05:34:30;;;;;;;18.73;4.93;;;;;;;22.83;56.33;101328.19;5066862;27;97393;-68
2022/08/22 05:37:07;;;;;;;9.93;4.53;;;;;;;22.57;57.09;101335.53;5068989;27;99483;-68
2022/08/22 05:39:36;;;;;;;18.13;6.05;;;;;;;22.82;56.42;101336.38;5070309;27;97699;-68
2022/08/22 05:42:05;;;;;;;14.70;5.25;;;;;;;22.78;56.00;101340.25;5067678;27;97702;-68
2022/08/22 05:44:50;;;;;;;16.23;5.32;;;;;;;22.63;56.41;101339.59;5071805;27;96809;-68
2022/08/22 05:47:22;;;;;;;20.17;6.07;;;;;;;22.87;55.13;101332.34;5063440;27;98859;-67
2022/08/22 05:49:59;;;;;;;10.52;5.53;;;;;;;22.96;54.25;101338.88;5068344;27;97761;-67
2022/08/22 05:52:44;;;;;;;16.30;6.05;;;;;;;23.22;53.25;101340.38;5068288;27;96767;-68
2022/08/22 05:55:22;;;;;;;9.65;4.93;;;;;;;23.18;53.74;101343.41;5063843;27;96915;-68
2022/08/22 05:57:57;;;;;;;14.65;6.40;;;;;;;23.41;52.74;101339.75;5071024;27;98881;-68
2022/08/22 06:00:26;;;;;;;8.93;4.60;;;;;;;23.66;52.59;101344.94;5067126;27;98849;-68
2022/08/22 06:03:05;;;;;;;7.90;4.35;;;;;;;23.71;53.28;101352.66;5070660;27;97112;-67
2022/08/22 06:05:37;;;;;;;18.38;5.20;;;;;;;23.81;52.97;101343.69;5059913;27;96726;-68
2022/08/22 06:08:11;;;;;;;10.05;5.22;;;;;;;24.22;52.01;101359.19;5066406;27;101600;-68
2022/08/22 06:10:43;;;;;;;17.95;7.43;;;;;;;24.40;51.21;101350.56;5071014;27;99245;-67
2022/08/22 06:13:19;;;;;;;15.82;6.28;;;;;;;24.88;49.95;101350.94;5069833;27;97644;-69
2022/08/22 06:15:50;;;;;;;;;;;;;;;24.98;48.04;101357.31;5068422;27;96691;-68
2022/08/22 06:18:20;;;;;;;13.05;5.82;;;;;;;25.50;45.79;101348.19;5066228;27;99037;-67
2022/08/22 06:20:51;;;;;;;14.98;5.57;;;;;;;25.39;45.11;101353.69;5065529;27;100521;-67
2022/08/22 06:23:22;;;;;;;11.23;4.93;;;;;;;25.56;44.71;101360.31;5067007;27;97023;-67
2022/08/22 06:25:52;;;;;;;13.77;5.70;;;;;;;25.88;44.22;101361.03;5065958;27;96811;-68
2022/08/22 06:28:25;;;;;;;12.10;4.40;;;;;;;25.99;43.38;101365.50;5066311;27;98384;-68
2022/08/22 06:30:57;;;;;;;8.68;4.53;;;;;;;26.22;43.17;101360.69;5066918;27;99790;-68
2022/08/22 06:33:27;;;;;;;16.58;5.47;;;;;;;26.18;42.63;101360.97;5063870;27;97122;-68
2022/08/22 06:39:05;;;;;;;11.32;4.65;;;;;;;26.48;41.75;101365.44;5062296;27;97182;-68
2022/08/22 06:41:39;;;;;;;8.30;4.60;;;;;;;26.78;41.17;101360.88;5066000;27;98851;-68
2022/08/22 06:44:09;;;;;;;10.27;4.72;;;;;;;26.81;40.69;101368.72;5065286;27;97211;-68
2022/08/22 06:46:38;;;;;;;12.10;4.53;;;;;;;26.90;40.42;101365.19;5064600;27;96853;-68
2022/08/22 06:49:08;;;;;;;11.13;5.03;;;;;;;26.87;40.77;101369.00;5059227;27;98921;-69
2022/08/22 06:51:36;;;;;;;13.18;4.45;;;;;;;26.93;40.28;101354.88;5066834;27;99306;-68
2022/08/22 06:54:06;;;;;;;11.50;3.67;;;;;;;27.10;40.11;101363.28;5063429;27;97123;-67
2022/08/22 06:56:44;;;;;;;10.50;4.05;;;;;;;27.29;39.21;101358.66;5065834;27;97199;-68
2022/08/22 06:59:18;;;;;;;6.90;3.80;;;;;;;27.27;38.66;101370.66;5067013;27;98966;-67
2022/08/22 07:01:50;;;;;;;8.15;3.13;;;;;;;27.20;38.32;101377.66;5067072;27;101731;-68
2022/08/22 07:04:17;;;;;;;10.02;3.33;;;;;;;27.23;39.04;101369.25;5058991;27;97778;-67
2022/08/22 07:06:49;;;;;;;11.32;4.43;;;;;;;27.63;38.64;101380.72;5063621;27;96843;-68
2022/08/22 07:09:22;;;;;;;8.75;3.50;;;;;;;27.58;38.10;101376.72;5062008;27;99426;-68
2022/08/22 07:11:49;;;;;;;7.18;3.03;;;;;;;27.63;38.15;101379.88;5066132;27;99149;-68
2022/08/22 07:14:28;;;;;;;13.27;4.03;;;;;;;27.60;37.79;101377.44;5059109;27;98747;-68
2022/08/22 07:16:58;;;;;;;4.30;2.40;;;;;;;27.95;36.95;101380.28;5064227;27;98566;-68
2022/08/22 07:19:36;;;;;;;9.25;2.53;;;;;;;27.56;36.54;101376.88;5065831;27;97672;-68
2022/08/22 07:22:11;;;;;;;12.63;2.80;;;;;;;27.91;36.73;101386.13;5067307;27;99264;-68
2022/08/22 07:24:44;;;;;;;11.07;2.55;;;;;;;27.98;35.64;101377.25;5069470;27;97071;-68
2022/08/22 07:27:21;;;;;;;5.55;2.20;;;;;;;27.91;35.48;101387.00;5070529;27;98980;-69
2022/08/22 07:30:00;;;;;;;4.43;2.20;;;;;;;27.97;35.27;101388.25;5064388;27;100413;-68
2022/08/22 07:32:40;;;;;;;3.53;1.70;;;;;;;27.81;35.22;101388.91;5062228;27;99343;-68
2022/08/22 07:35:14;;;;;;;7.07;2.17;;;;;;;27.93;35.20;101384.13;5067647;27;97262;-68
2022/08/22 07:37:49;;;;;;;8.70;2.65;;;;;;;27.99;35.73;101384.38;5065918;27;98732;-67
2022/08/22 07:40:25;;;;;;;6.20;2.30;;;;;;;28.06;35.07;101390.94;5065411;27;99331;-68
2022/08/22 07:43:00;;;;;;;7.13;2.10;;;;;;;27.73;35.51;101389.66;5061757;27;98358;-68
2022/08/22 07:45:34;;;;;;;5.18;1.73;;;;;;;27.90;35.67;101387.13;5059075;27;96944;-69
2022/08/22 07:48:12;;;;;;;6.50;2.08;;;;;;;28.01;36.16;101385.09;5061286;27;96878;-68
2022/08/22 07:50:49;;;;;;;12.73;2.78;;;;;;;27.75;35.78;101392.25;5064519;27;99388;-69
2022/08/22 07:53:25;;;;;;;6.97;2.20;;;;;;;28.01;34.82;101387.81;5062746;27;97544;-68
2022/08/22 07:55:55;;;;;;;3.85;1.98;;;;;;;28.06;35.44;101387.34;5062938;27;97194;-68
2022/08/22 07:58:26;;;;;;;8.88;2.05;;;;;;;28.27;35.15;101392.56;5063076;27;96980;-68
2022/08/22 08:00:55;;;;;;;6.45;2.03;;;;;;;28.32;34.61;101388.34;5062456;27;99037;-68
2022/08/22 08:03:24;;;;;;;8.10;1.70;;;;;;;28.35;34.52;101395.34;5052592;27;101620;-69
2022/08/22 08:05:50;;;;;;;5.95;1.85;;;;;;;28.62;34.39;101389.84;5063566;27;97089;-68
2022/08/22 08:08:24;;;;;;;6.03;1.67;;;;;;;28.49;34.15;101397.53;5063942;27;96797;-68
2022/08/22 08:10:53;;;;;;;5.78;2.05;;;;;;;28.73;33.54;101396.91;5063992;27;99020;-68
2022/08/22 08:13:28;;;;;;;9.68;3.28;;;;;;;29.08;33.27;101398.78;5064769;27;99039;-68
2022/08/22 08:15:58;;;;;;;5.28;1.83;;;;;;;28.95;32.75;101393.72;5061218;27;97972;-69
2022/08/22 08:18:28;;;;;;;5.35;1.50;;;;;;;29.08;33.25;101393.34;5066182;27;97197;-68
2022/08/22 08:20:58;;;;;;;6.10;1.60;;;;;;;29.57;33.21;101389.94;5064176;27;100033;-68
2022/08/22 08:23:28;;;;;;;4.22;1.67;;;;;;;29.59;32.91;101390.63;5065325;27;101634;-69
2022/08/22 08:26:03;;;;;;;4.38;1.20;;;;;;;29.65;32.32;101386.41;5059382;27;97883;-69
2022/08/22 08:28:35;;;;;;;4.53;1.35;;;;;;;29.70;32.65;101389.50;5064940;27;98569;-68
2022/08/22 08:31:12;;;;;;;5.70;1.75;;;;;;;29.54;31.71;101384.81;5065365;27;99482;-67
2022/08/22 08:33:41;;;;;;;4.75;1.85;;;;;;;29.48;32.57;101387.31;5059076;27;99870;-66
2022/08/22 08:36:33;;;;;;;6.55;1.38;;;;;;;29.29;32.44;101385.63;5066152;27;96910;-67
2022/08/22 08:39:13;;;;;;;4.43;1.58;;;;;;;29.55;31.69;101388.38;5068916;27;97187;-66
2022/08/22 08:42:18;;;;;;;7.40;2.55;;;;;;;29.83;31.07;101383.59;5063188;27;99263;-67
2022/08/22 08:45:08;;;;;;;9.52;1.80;;;;;;;30.01;31.22;101387.94;5062544;27;98993;-68
2022/08/22 08:48:16;;;;;;;5.85;1.90;;;;;;;29.77;31.23;101379.66;5062735;27;98339;-67
2022/08/22 08:50:50;;;;;;;;;;;;;;;29.91;31.44;101380.91;5061793;27;98048;-67
2022/08/22 08:53:34;;;;;;;6.32;1.77;;;;;;;30.07;31.13;101380.97;5066009;27;100095;-67
2022/08/22 08:56:06;;;;;;;9.57;1.67;;;;;;;30.15;30.73;101372.81;5063048;27;98915;-67
2022/08/22 08:58:42;;;;;;;8.70;1.95;;;;;;;30.21;30.53;101383.06;5068662;27;98642;-67
2022/08/22 09:01:33;;;;;;;5.40;1.20;;;;;;;30.12;29.96;101373.19;5064906;27;96862;-68
2022/08/22 09:04:24;;;;;;;3.83;1.48;;;;;;;29.92;30.61;101371.75;5066582;27;99189;-68
2022/08/22 09:07:08;;;;;;;4.38;1.42;;;;;;;30.07;30.15;101375.53;5060916;27;98814;-68
2022/08/22 09:09:54;;;;;;;3.88;1.50;;;;;;;30.03;30.17;101380.47;5066336;27;97320;-68
2022/08/22 09:12:37;;;;;;;7.43;2.03;;;;;;;30.20;29.87;101381.34;5061662;27;97017;-68
2022/08/22 09:15:30;;;;;;;5.88;1.25;;;;;;;30.04;30.40;101378.59;5053339;27;98749;-67
2022/08/22 09:18:38;;;;;;;5.40;1.45;;;;;;;29.95;29.70;101383.16;5066934;27;99052;-67
2022/08/22 09:21:28;;;;;;;7.72;2.05;;;;;;;30.15;30.01;101378.28;5063486;27;96909;-68
2022/08/22 09:24:40;;;;;;;7.13;1.80;;;;;;;30.23;29.52;101385.63;5060290;27;96952;-67
2022/08/22 09:27:30;;;;;;;8.85;1.58;;;;;;;30.36;30.35;101386.00;5012429;27;99593;-68
2022/08/22 09:30:11;;;;;;;10.82;2.20;;;;;;;30.66;29.93;101387.25;5061159;27;97659;-68
2022/08/22 09:32:57;;;;;;;5.80;1.35;;;;;;;30.62;29.46;101385.91;5059021;27;98655;-67
2022/08/22 09:35:40;;;;;;;5.70;1.63;;;;;;;30.58;29.42;101381.81;5062621;27;98226;-67
2022/08/22 09:38:24;;;;;;;4.70;1.60;;;;;;;30.77;29.47;101386.94;5061589;27;97996;-66
2022/08/22 09:41:24;;;;;;;8.38;1.65;;;;;;;30.76;29.22;101385.22;5067251;27;99206;-67
2022/08/22 09:47:41;;;;;;;5.05;1.50;;;;;;;30.95;28.88;101390.34;5065168;27;97826;-68
2022/08/22 09:50:29;;;;;;;4.72;1.77;;;;;;;30.70;29.27;101389.50;5048599;27;98788;-67
2022/08/22 09:53:08;;;;;;;6.70;1.55;;;;;;;30.74;28.83;101384.53;5064317;27;97559;-68
2022/08/22 09:56:13;;;;;;;4.60;1.50;;;;;;;30.77;29.65;101384.22;5062908;27;97315;-67
2022/08/22 09:58:47;;;;;;;5.57;1.67;;;;;;;30.72;29.32;101389.34;5061929;27;97519;-66
2022/08/22 10:01:28;;;;;;;5.15;1.20;;;;;;;30.73;29.41;101386.41;5063465;27;99471;-66
2022/08/22 10:04:39;;;;;;;5.10;1.80;;;;;;;30.55;29.80;101393.06;5069091;27;97968;-67
2022/08/22 10:07:24;;;;;;;6.00;1.70;;;;;;;30.99;29.12;101388.09;5060121;27;97288;-67
2022/08/22 10:10:04;;;;;;;3.72;1.48;;;;;;;31.05;29.43;101388.31;5063179;27;98662;-67
2022/08/22 10:12:49;;;;;;;5.57;1.30;;;;;;;31.08;29.24;101392.59;5063884;27;99025;-68
2022/08/22 10:15:21;;;;;;;10.05;1.90;;;;;;;30.94;29.17;101385.91;5064500;27;101813;-67
2022/08/22 10:18:03;;;;;;;5.95;1.85;;;;;;;31.09;29.11;101389.69;5063446;27;96803;-67
2022/08/22 10:20:36;;;;;;;5.45;1.80;;;;;;;31.17;28.98;101394.28;5062287;27;98961;-67
2022/08/22 10:23:17;;;;;;;7.25;2.17;;;;;;;31.14;28.03;101398.22;5064847;27;99294;-67
2022/08/22 10:25:51;;;;;;;5.95;1.42;;;;;;;31.06;28.09;101384.56;5058739;27;99228;-67
2022/08/22 10:28:34;;;;;;;7.68;1.27;;;;;;;31.11;28.29;101395.84;5065943;27;97138;-67
2022/08/22 10:31:14;;;;;;;3.97;1.50;;;;;;;31.22;27.98;101387.28;5065995;27;96832;-67
2022/08/22 10:33:47;;;;;;;5.80;1.27;;;;;;;31.07;28.36;101391.72;5065647;27;101533;-67
2022/08/22 10:36:18;;;;;;;5.82;1.50;;;;;;;31.08;28.16;101384.41;5059573;27;99396;-67
2022/08/22 10:38:49;;;;;;;4.82;1.70;;;;;;;31.15;28.06;101390.88;5062880;27;97262;-67
2022/08/22 10:41:27;;;;;;;4.18;1.02;;;;;;;31.09;27.33;101389.69;5064691;27;97701;-67
2022/08/22 10:44:02;;;;;;;6.28;1.52;;;;;;;31.19;27.53;101379.44;5063375;27;98829;-67
2022/08/22 10:46:36;;;;;;;9.20;1.77;;;;;;;31.13;26.55;101392.91;5051722;27;99041;-69
2022/08/22 10:49:10;;;;;;;5.47;1.27;;;;;;;30.86;26.76;101381.28;5067132;27;97059;-67
2022/08/22 10:51:44;;;;;;;4.32;1.80;;;;;;;30.70;27.56;101381.31;5060003;27;97681;-67
2022/08/22 10:54:29;;;;;;;3.63;1.00;;;;;;;30.65;27.24;101380.97;5070548;27;99072;-67
2022/08/22 10:57:07;;;;;;;3.33;1.20;;;;;;;30.68;27.68;101379.75;5067202;27;98824;-67
2022/08/22 10:59:43;;;;;;;7.13;1.48;;;;;;;30.82;26.92;101381.81;5063428;27;97163;-67
2022/08/22 11:02:26;;;;;;;;;;;;;;;30.69;27.31;101378.75;5070420;27;97319;-67
2022/08/22 11:05:14;;;;;;;9.40;1.42;;;;;;;31.06;27.33;101378.25;5065301;27;99310;-68
2022/08/22 11:07:47;;;;;;;7.55;1.58;;;;;;;31.04;27.27;101381.13;5067890;27;99595;-67
2022/08/22 11:10:26;;;;;;;2.67;1.05;;;;;;;31.17;25.86;101378.75;5068285;27;96848;-67
2022/08/22 11:13:05;;;;;;;4.45;1.83;;;;;;;31.32;25.97;101378.88;5063052;27;97486;-67
2022/08/22 11:15:59;;;;;;;4.40;1.40;;;;;;;31.33;26.12;101374.28;5067844;27;101856;-68
2022/08/22 11:18:40;;;;;;;4.63;1.30;;;;;;;31.47;26.18;101381.75;5067471;27;98909;-67
2022/08/22 11:21:10;;;;;;;6.38;1.25;;;;;;;31.35;26.11;101372.25;5059069;27;99433;-68
2022/08/22 11:23:42;;;;;;;3.58;1.60;;;;;;;31.50;25.82;101375.97;5067549;27;96878;-69
2022/08/22 11:26:30;;;;;;;9.35;1.52;;;;;;;31.52;26.05;101372.00;5061814;27;98137;-70
2022/08/22 11:29:08;;;;;;;5.57;2.10;;;;;;;31.67;26.14;101378.50;5069357;27;99307;-69
2022/08/22 11:31:48;;;;;;;4.25;1.25;;;;;;;31.52;25.67;101380.19;5063969;27;97335;-69
2022/08/22 11:34:29;;;;;;;5.32;1.48;;;;;;;31.30;25.36;101371.91;5070136;27;97191;-69
2022/08/22 11:37:06;;;;;;;4.65;1.67;;;;;;;31.24;26.35;101368.81;5066060;27;101890;-69
2022/08/22 11:39:37;;;;;;;6.10;1.20;;;;;;;31.15;26.46;101369.88;5062685;27;98810;-69
2022/08/22 11:42:08;;;;;;;4.72;1.02;;;;;;;31.25;26.94;101367.81;5070981;27;97246;-69
2022/08/22 11:44:41;;;;;;;4.40;1.50;;;;;;;30.83;27.26;101372.63;5065587;27;97131;-69
2022/08/22 11:47:13;;;;;;;5.00;1.33;;;;;;;30.66;27.50;101365.44;5068292;27;99024;-69
2022/08/22 11:49:57;;;;;;;3.15;1.33;;;;;;;31.05;27.65;101371.09;5066588;27;98729;-70
2022/08/22 11:52:37;;;;;;;4.20;0.98;;;;;;;31.13;27.29;101358.28;5062762;27;97045;-69
2022/08/22 11:55:30;;;;;;;5.35;1.90;;;;;;;31.26;27.38;101358.59;5065484;27;97262;-69
2022/08/22 11:58:12;;;;;;;5.93;1.58;;;;;;;31.40;26.72;101358.91;5063324;27;99087;-69
2022/08/22 12:00:53;;;;;;;3.97;1.40;;;;;;;31.32;26.67;101359.78;5066388;27;99182;-69
2022/08/22 12:03:34;;;;;;;8.05;1.15;;;;;;;31.76;26.36;101362.06;5057105;27;97265;-69
2022/08/22 12:06:06;;;;;;;7.30;1.42;;;;;;;31.53;26.03;101357.31;5067614;27;96963;-69
2022/08/22 12:09:15;;;;;;;2.65;1.05;;;;;;;31.50;26.08;101356.84;5064342;27;98859;-68
2022/08/22 12:11:52;;;;;;;4.53;1.60;;;;;;;31.82;26.08;101364.94;5064774;27;101107;-69
2022/08/22 12:14:26;;;;;;;3.67;1.25;;;;;;;31.92;26.04;101359.25;5070377;27;98157;-69
2022/08/22 12:17:09;;;;;;;4.63;1.30;;;;;;;31.86;25.58;101366.28;5069624;27;96860;-68
2022/08/22 12:19:48;;;;;;;5.75;1.42;;;;;;;31.87;25.52;101359.78;5070339;27;99260;-69
2022/08/22 12:22:40;;;;;;;4.15;1.13;;;;;;;32.14;25.77;101363.09;5067077;27;100054;-69
2022/08/22 12:25:18;;;;;;;4.60;1.40;;;;;;;31.72;25.70;101356.09;5063545;27;97212;-68